Time;durP1;ratioP1;P1;durP2;ratioP2;P2;SDS_P1;SDS_P2;PMS_P1;PMS_P2;Temp;Humidity;BMP_temperature;BMP_pressure;BME280_temperature;BME280_humidity;BME280_pressure;Samples;Min_cycle;Max_cycle;Signal;HPM_P1;HPM_P2
2021/03/21 00:01:33;;;;;;;;;;;6.50;90.80;;;;;;6226521;22;19915;-88
2021/03/21 00:10:23;;;;;;;;;;;;;;;;;;;;;
2021/03/21 00:12:55;;;;;;;;;;;6.50;90.80;;;;;;6277569;22;19978;-89
2021/03/21 00:15:48;;;;;;;;;;;6.50;90.90;;;;;;6250423;22;20269;-88
2021/03/21 00:18:36;;;;;;;;;;;6.50;90.90;;;;;;6251321;22;19903;-88
2021/03/21 00:21:05;;;;;;;;;;;6.50;90.90;;;;;;6148039;22;19911;-89
2021/03/21 00:23:34;;;;;;;;;;;6.50;90.90;;;;;;6251463;22;20264;-88
2021/03/21 00:26:12;;;;;;;;;;;6.50;90.90;;;;;;6250325;22;19986;-88
2021/03/21 00:28:54;;;;;;;;;;;;;;;;;;;;;
2021/03/21 00:31:33;;;;;;;;;;;;;;;;;;;;;
2021/03/21 00:34:01;;;;;;;;;;;6.50;91.00;;;;;;6278209;22;19978;-87
2021/03/21 00:39:57;;;;;;;;;;;6.50;91.00;;;;;;6232840;22;19912;-87
2021/03/21 00:42:37;;;;;;;;;;;6.50;91.00;;;;;;6243885;22;19961;-87
2021/03/21 00:45:11;;;;;;;;;;;6.50;91.00;;;;;;6250952;22;19914;-87
2021/03/21 00:48:16;;;;;;;;;;;;;;;;;;;;;
2021/03/21 00:53:40;;;;;;;;;;;6.50;91.10;;;;;;6257468;22;19904;-87
2021/03/21 00:59:22;;;;;;;;;;;6.50;91.10;;;;;;6236130;23;19903;-87
2021/03/21 01:02:36;;;;;;;;;;;;;;;;;;;;;
2021/03/21 01:05:12;;;;;;;;;;;6.40;91.20;;;;;;6245823;22;19977;-87
2021/03/21 01:08:00;;;;;;;;;;;6.40;91.20;;;;;;6248623;23;19903;-88
2021/03/21 01:10:34;;;;;;;;;;;6.40;91.20;;;;;;6247979;23;19957;-88
2021/03/21 01:13:14;;;;;;;;;;;6.40;91.20;;;;;;6247552;23;20368;-87
2021/03/21 01:19:16;;;;;;;;;;;6.40;91.10;;;;;;6161204;23;20114;-87
2021/03/21 01:22:05;;;;;;;;;;;;;;;;;;;;;
2021/03/21 01:30:51;;;;;;;;;;;6.40;91.20;;;;;;6244449;23;19962;-88
2021/03/21 01:33:32;;;;;;;;;;;;;;;;;;;;;
2021/03/21 01:42:31;;;;;;;;;;;;;;;;;;;;;
2021/03/21 01:45:18;;;;;;;;;;;6.30;91.20;;;;;;6245003;23;19974;-88
2021/03/21 01:48:24;;;;;;;;;;;6.30;91.20;;;;;;6226620;23;19914;-88
2021/03/21 01:51:14;;;;;;;;;;;6.30;91.20;;;;;;6201441;23;20207;-87
2021/03/21 01:54:17;;;;;;;;;;;6.30;91.20;;;;;;6247307;23;19904;-88
2021/03/21 01:56:51;;;;;;;;;;;6.30;91.20;;;;;;6246721;23;20238;-88
2021/03/21 01:59:36;;;;;;;;;;;;;;;;;;;;;
2021/03/21 02:02:10;;;;;;;;;;;6.30;91.30;;;;;;6248471;23;19994;-88
2021/03/21 02:05:28;;;;;;;;;;;6.30;91.40;;;;;;6247344;23;20318;-88
2021/03/21 02:08:04;;;;;;;;;;;;;;;;;;;;;
2021/03/21 02:10:50;;;;;;;;;;;;;;;;;;;;;
2021/03/21 02:13:28;;;;;;;;;;;;;;;;;;;;;
2021/03/21 02:19:30;;;;;;;;;;;6.30;91.40;;;;;;6245994;23;19946;-88
2021/03/21 02:22:20;;;;;;;;;;;6.30;91.40;;;;;;6245429;23;19911;-87
2021/03/21 02:25:06;;;;;;;;;;;6.30;91.40;;;;;;6246148;23;19908;-89
2021/03/21 02:28:06;;;;;;;;;;;6.30;91.40;;;;;;6246448;23;20318;-88
2021/03/21 02:36:59;;;;;;;;;;;;;;;;;;;;;
2021/03/21 02:39:46;;;;;;;;;;;6.30;91.40;;;;;;6236041;23;19994;-89
2021/03/21 02:45:53;;;;;;;;;;;6.30;91.40;;;;;;6247819;23;19908;-88
2021/03/21 02:48:22;;;;;;;;;;;6.30;91.40;;;;;;6245705;23;19915;-87
2021/03/21 02:51:10;;;;;;;;;;;6.30;91.40;;;;;;6244720;23;19930;-89
2021/03/21 02:53:56;;;;;;;;;;;6.30;91.70;;;;;;6226711;23;19911;-87
2021/03/21 02:56:34;;;;;;;;;;;6.30;91.40;;;;;;6244825;22;19950;-88
2021/03/21 02:59:07;;;;;;;;;;;6.30;91.50;;;;;;6245569;23;19904;-88
2021/03/21 03:01:57;;;;;;;;;;;;;;;;;;;;;
2021/03/21 03:04:46;;;;;;;;;;;6.30;91.50;;;;;;6247379;23;19982;-88
2021/03/21 03:10:25;;;;;;;;;;;6.30;91.50;;;;;;6222915;23;20318;-88
2021/03/21 03:13:17;;;;;;;;;;;6.30;91.60;;;;;;6245819;23;19904;-88
2021/03/21 03:19:13;;;;;;;;;;;;;;;;;;;;;
2021/03/21 03:21:39;;;;;;;;;;;6.30;91.70;;;;;;6244191;23;19911;-88
2021/03/21 03:24:46;;;;;;;;;;;6.30;91.60;;;;;;6245440;23;19908;-88
2021/03/21 03:27:51;;;;;;;;;;;6.30;91.70;;;;;;6213106;23;19904;-89
2021/03/21 03:31:07;;;;;;;;;;;;;;;;;;;;;
2021/03/21 03:33:34;;;;;;;;;;;6.40;91.70;;;;;;6242425;22;19954;-89
2021/03/21 03:39:36;;;;;;;;;;;;;;;;;;;;;
2021/03/21 03:42:10;;;;;;;;;;;6.40;91.80;;;;;;6262544;23;19918;-88
2021/03/21 03:44:58;;;;;;;;;;;6.40;91.80;;;;;;6251767;23;19915;-88
2021/03/21 03:47:45;;;;;;;;;;;6.40;91.80;;;;;;6253220;23;19926;-89
2021/03/21 03:53:27;;;;;;;;;;;6.40;91.90;;;;;;6233621;23;19931;-88
2021/03/21 03:56:10;;;;;;;;;;;6.40;91.90;;;;;;6253121;23;20298;-89
2021/03/21 03:58:56;;;;;;;;;;;6.40;91.90;;;;;;6219248;23;19915;-88
2021/03/21 04:01:52;;;;;;;;;;;6.40;92.00;;;;;;6218454;23;19970;-87
2021/03/21 04:05:01;;;;;;;;;;;6.40;92.00;;;;;;6219093;23;19923;-89
2021/03/21 04:07:39;;;;;;;;;;;;;;;;;;;;;
2021/03/21 04:10:31;;;;;;;;;;;6.40;92.10;;;;;;6247610;23;20292;-88
2021/03/21 04:13:31;;;;;;;;;;;6.50;92.10;;;;;;6205234;23;19904;-88
2021/03/21 04:16:12;;;;;;;;;;;;;;;;;;;;;
2021/03/21 04:19:04;;;;;;;;;;;;;;;;;;;;;
2021/03/21 04:21:52;;;;;;;;;;;;;;;;;;;;;
2021/03/21 04:24:36;;;;;;;;;;;6.50;92.20;;;;;;6247004;23;20397;-88
2021/03/21 04:27:19;;;;;;;;;;;;;;;;;;;;;
2021/03/21 04:29:57;;;;;;;;;;;6.50;92.20;;;;;;6247618;23;20282;-87
2021/03/21 04:32:30;;;;;;;;;;;6.40;92.20;;;;;;6219000;23;19923;-88
2021/03/21 04:35:32;;;;;;;;;;;6.50;92.30;;;;;;6220280;23;19917;-88
2021/03/21 04:38:04;;;;;;;;;;;6.50;92.30;;;;;;6221873;23;19986;-88
2021/03/21 04:40:41;;;;;;;;;;;6.50;92.40;;;;;;6222787;23;19903;-88
2021/03/21 04:43:37;;;;;;;;;;;6.40;92.30;;;;;;6222030;23;19919;-89
2021/03/21 04:46:21;;;;;;;;;;;6.50;92.40;;;;;;6247113;22;19908;-88
2021/03/21 04:48:55;;;;;;;;;;;6.50;92.40;;;;;;6207303;23;19903;-88
2021/03/21 04:51:29;;;;;;;;;;;6.50;92.40;;;;;;6222169;23;19987;-88
2021/03/21 04:54:20;;;;;;;;;;;6.50;92.60;;;;;;6221448;23;19904;-88
2021/03/21 04:57:14;;;;;;;;;;;;;;;;;;;;;
2021/03/21 04:59:45;;;;;;;;;;;6.50;92.30;;;;;;6278364;22;19998;-89
2021/03/21 05:02:36;;;;;;;;;;;6.50;92.30;;;;;;6226996;22;19923;-86
2021/03/21 05:05:30;;;;;;;;;;;;;;;;;;;;;
2021/03/21 05:14:18;;;;;;;;;;;6.60;92.30;;;;;;6278955;22;19903;-87
2021/03/21 05:17:14;;;;;;;;;;;6.50;92.30;;;;;;6251547;22;19903;-88
2021/03/21 05:20:13;;;;;;;;;;;6.60;92.30;;;;;;6251902;22;19938;-87
2021/03/21 05:23:04;;;;;;;;;;;6.50;92.30;;;;;;6211221;22;19918;-87
2021/03/21 05:31:54;;;;;;;;;;;6.60;92.30;;;;;;6257109;22;19939;-88
2021/03/21 05:34:40;;;;;;;;;;;6.60;92.20;;;;;;6233017;22;19903;-87
2021/03/21 05:37:08;;;;;;;;;;;6.60;92.20;;;;;;6250831;22;19904;-88
2021/03/21 05:39:46;;;;;;;;;;;6.60;92.20;;;;;;6250642;22;19907;-88
2021/03/21 05:42:30;;;;;;;;;;;6.60;92.20;;;;;;6251506;22;20317;-90
2021/03/21 05:45:01;;;;;;;;;;;6.60;92.20;;;;;;6250409;22;19911;-90
2021/03/21 05:47:36;;;;;;;;;;;6.60;92.10;;;;;;6251013;22;20318;-90
2021/03/21 05:50:27;;;;;;;;;;;6.60;92.10;;;;;;6251096;22;19920;-89
2021/03/21 05:53:23;;;;;;;;;;;6.60;92.10;;;;;;6251483;22;20320;-88
2021/03/21 05:55:58;;;;;;;;;;;6.60;92.00;;;;;;6250977;22;19953;-89
2021/03/21 05:58:40;;;;;;;;;;;6.70;92.00;;;;;;6244965;23;19991;-89
2021/03/21 06:01:35;;;;;;;;;;;6.60;92.00;;;;;;6246170;23;19918;-89
2021/03/21 06:04:28;;;;;;;;;;;6.60;91.90;;;;;;6247505;23;19986;-89
2021/03/21 06:07:00;;;;;;;;;;;6.70;91.80;;;;;;6247061;23;19953;-88
2021/03/21 06:09:44;;;;;;;;;;;6.70;91.60;;;;;;6244801;23;19949;-89
2021/03/21 06:12:47;;;;;;;;;;;6.70;91.50;;;;;;6246016;23;19911;-88
2021/03/21 06:15:53;;;;;;;;;;;6.60;91.40;;;;;;6100436;23;19905;-89
2021/03/21 06:18:47;;;;;;;;;;;;;;;;;;;;;
2021/03/21 06:21:37;;;;;;;;;;;;;;;;;;;;;
2021/03/21 06:24:18;;;;;;;;;;;6.70;91.30;;;;;;6247246;23;19947;-89
2021/03/21 06:26:56;;;;;;;;;;;6.70;91.30;;;;;;6245150;23;19954;-90
2021/03/21 06:32:45;;;;;;;;;;;6.70;91.30;;;;;;6189245;22;19904;-91
2021/03/21 06:35:42;;;;;;;;;;;;;;;;;;;;;
2021/03/21 06:38:55;;;;;;;;;;;6.70;91.20;;;;;;6245316;23;20030;-89
2021/03/21 06:41:21;;;;;;;;;;;6.70;91.20;;;;;;6240270;22;19907;-89
2021/03/21 06:44:13;;;;;;;;;;;6.70;91.20;;;;;;6247322;22;19908;-89
2021/03/21 06:46:48;;;;;;;;;;;6.70;91.20;;;;;;6244835;23;19904;-90
2021/03/21 06:49:26;;;;;;;;;;;;;;;;;;;;;
2021/03/21 06:52:26;;;;;;;;;;;6.70;91.40;;;;;;6246779;23;19991;-89
2021/03/21 06:55:04;;;;;;;;;;;;;;;;;;;;;
2021/03/21 06:57:52;;;;;;;;;;;6.70;91.40;;;;;;6245778;22;20301;-89
2021/03/21 07:00:40;;;;;;;;;;;6.70;91.40;;;;;;6244013;23;19910;-89
2021/03/21 07:03:29;;;;;;;;;;;6.70;91.40;;;;;;6245685;23;20211;-90
2021/03/21 07:06:26;;;;;;;;;;;;;;;;;;;;;
2021/03/21 07:09:16;;;;;;;;;;;6.70;91.30;;;;;;6248543;23;19990;-90
2021/03/21 07:12:02;;;;;;;;;;;6.70;91.10;;;;;;6245695;23;19921;-89
2021/03/21 07:14:48;;;;;;;;;;;6.70;91.10;;;;;;6246348;23;20322;-89
2021/03/21 07:17:43;;;;;;;;;;;6.70;91.10;;;;;;6244849;23;19903;-89
2021/03/21 07:26:25;;;;;;;;;;;6.80;90.90;;;;;;6235154;23;19907;-89
2021/03/21 07:29:14;;;;;;;;;;;6.80;90.80;;;;;;6244421;23;19926;-87
2021/03/21 07:35:04;;;;;;;;;;;6.80;90.70;;;;;;6236690;23;19975;-89
2021/03/21 07:41:02;;;;;;;;;;;6.90;90.70;;;;;;6234809;23;20270;-89
2021/03/21 07:43:54;;;;;;;;;;;6.90;90.60;;;;;;6232409;23;19911;-89
2021/03/21 07:52:33;;;;;;;;;;;;;;;;;;;;;
2021/03/21 07:58:36;;;;;;;;;;;7.10;88.90;;;;;;6201152;22;19970;-89
2021/03/21 08:01:46;;;;;;;;;;;7.10;87.80;;;;;;6244400;23;19918;-90
2021/03/21 08:04:50;;;;;;;;;;;;;;;;;;;;;
2021/03/21 08:07:45;;;;;;;;;;;7.20;87.50;;;;;;6248367;23;19978;-90
2021/03/21 08:10:17;;;;;;;;;;;7.20;87.20;;;;;;6232313;23;19931;-89
2021/03/21 08:12:48;;;;;;;;;;;7.20;86.60;;;;;;6244893;23;19903;-91
2021/03/21 08:15:25;;;;;;;;;;;7.20;86.10;;;;;;6245791;23;20348;-86
2021/03/21 08:21:11;;;;;;;;;;;7.30;85.60;;;;;;6221955;23;19903;-86
2021/03/21 08:24:00;;;;;;;;;;;7.40;85.90;;;;;;6244386;23;19908;-85
